createdAt,value
2022-11-30T00:01:43.106Z,6.57
2022-11-30T00:04:12.184Z,7.43
2022-11-30T00:06:44.803Z,7.38
2022-11-30T00:09:13.745Z,7.00
2022-11-30T00:11:42.454Z,7.43
2022-11-30T00:14:11.190Z,8.70
2022-11-30T00:16:39.739Z,7.50
2022-11-30T00:19:09.890Z,7.88
2022-11-30T00:21:38.422Z,8.75
2022-11-30T00:24:08.242Z,7.78
2022-11-30T00:26:37.282Z,9.85
2022-11-30T00:29:05.879Z,8.82
2022-11-30T00:31:34.632Z,7.60
2022-11-30T00:34:03.196Z,9.45
2022-11-30T00:36:33.395Z,7.65
2022-11-30T00:39:02.173Z,8.70
2022-11-30T00:41:30.993Z,8.52
2022-11-30T00:43:59.535Z,8.80
2022-11-30T00:46:28.466Z,10.05
2022-11-30T00:48:57.059Z,8.48
2022-11-30T00:51:25.632Z,8.68
2022-11-30T00:53:55.926Z,7.80
2022-11-30T00:56:25.020Z,7.65
2022-11-30T00:58:53.887Z,7.38
2022-11-30T01:01:22.765Z,7.45
2022-11-30T01:03:51.336Z,6.88
2022-11-30T01:06:19.862Z,7.18
2022-11-30T01:08:49.168Z,6.73
2022-11-30T01:11:23.688Z,7.88
2022-11-30T01:13:52.752Z,6.38
2022-11-30T01:16:25.039Z,7.15
2022-11-30T01:18:54.148Z,8.60
2022-11-30T01:21:25.918Z,6.95
2022-11-30T01:23:54.893Z,7.20
2022-11-30T01:26:25.743Z,6.18
2022-11-30T01:28:57.012Z,7.72
2022-11-30T01:31:26.786Z,6.10
2022-11-30T01:33:57.127Z,9.13
2022-11-30T01:36:27.595Z,6.78
2022-11-30T01:38:58.281Z,6.63
2022-11-30T01:41:30.198Z,6.97
2022-11-30T01:44:38.182Z,8.40
2022-11-30T01:47:11.637Z,6.40
2022-11-30T01:49:44.586Z,6.10
2022-11-30T01:52:16.907Z,7.25
2022-11-30T01:54:51.280Z,7.20
2022-11-30T01:57:26.005Z,6.55
2022-11-30T01:59:58.597Z,6.10
2022-11-30T02:02:34.027Z,6.53
2022-11-30T02:05:03.009Z,7.13
2022-11-30T02:07:31.702Z,5.60
2022-11-30T02:10:00.622Z,5.57
2022-11-30T02:12:40.778Z,7.63
2022-11-30T02:15:13.884Z,6.70
2022-11-30T02:17:53.400Z,6.80
2022-11-30T02:20:51.887Z,7.60
2022-11-30T02:24:13.715Z,6.90
2022-11-30T02:27:03.527Z,7.00
2022-11-30T02:29:39.150Z,6.53
2022-11-30T02:32:11.790Z,6.78
2022-11-30T02:34:41.058Z,6.00
2022-11-30T02:37:12.343Z,5.28
2022-11-30T02:39:41.115Z,5.50
2022-11-30T02:42:13.343Z,6.15
2022-11-30T02:44:45.993Z,5.95
2022-11-30T02:47:22.889Z,4.20
2022-11-30T02:49:57.864Z,6.10
2022-11-30T02:52:29.443Z,4.88
2022-11-30T02:55:02.267Z,4.35
2022-11-30T02:57:31.126Z,5.50
2022-11-30T03:00:03.510Z,4.40
2022-11-30T03:02:32.111Z,5.20
2022-11-30T03:05:00.936Z,5.32
2022-11-30T03:07:30.037Z,5.97
2022-11-30T03:09:58.711Z,5.45
2022-11-30T03:12:27.527Z,6.10
2022-11-30T03:14:56.039Z,4.88
2022-11-30T03:17:26.251Z,4.32
2022-11-30T03:19:54.776Z,5.22
2022-11-30T03:22:23.529Z,5.63
2022-11-30T03:24:55.839Z,4.75
2022-11-30T03:27:24.633Z,4.97
2022-11-30T03:29:53.378Z,4.30
2022-11-30T03:32:22.180Z,5.00
2022-11-30T03:34:52.173Z,5.18
2022-11-30T03:37:20.763Z,4.93
2022-11-30T03:39:52.486Z,4.75
2022-11-30T03:42:25.307Z,5.75
2022-11-30T03:44:53.893Z,6.40
2022-11-30T03:47:22.752Z,5.10
2022-11-30T03:49:52.937Z,6.30
2022-11-30T03:52:21.683Z,5.60
2022-11-30T03:54:50.236Z,6.35
2022-11-30T03:57:19.036Z,8.20
2022-11-30T03:59:47.826Z,4.65
2022-11-30T04:02:16.839Z,6.40
2022-11-30T04:04:45.819Z,6.90
2022-11-30T04:07:15.918Z,6.10
2022-11-30T04:09:44.501Z,5.80
2022-11-30T04:12:13.031Z,6.15
2022-11-30T04:14:41.611Z,7.45
2022-11-30T04:17:10.196Z,6.90
2022-11-30T04:19:38.733Z,6.82
2022-11-30T04:22:07.986Z,6.55
2022-11-30T04:24:38.102Z,8.05
2022-11-30T04:27:06.936Z,7.20
2022-11-30T04:29:35.449Z,6.40
2022-11-30T04:32:04.006Z,8.02
2022-11-30T04:34:32.808Z,6.63
2022-11-30T04:37:01.355Z,6.95
2022-11-30T04:39:29.902Z,8.45
2022-11-30T04:41:59.824Z,10.63
2022-11-30T04:44:28.409Z,7.40
2022-11-30T04:46:57.322Z,8.70
2022-11-30T04:49:25.958Z,7.60
2022-11-30T04:51:54.732Z,7.80
2022-11-30T04:54:23.255Z,7.65
2022-11-30T04:56:51.812Z,8.05
2022-11-30T04:59:21.758Z,8.45
2022-11-30T05:01:50.391Z,8.02
2022-11-30T05:04:19.086Z,7.20
2022-11-30T05:06:47.685Z,8.15
2022-11-30T05:09:16.215Z,6.50
2022-11-30T05:11:44.756Z,7.70
2022-11-30T05:14:13.469Z,7.85
2022-11-30T05:16:43.440Z,8.55
2022-11-30T05:19:12.966Z,8.02
2022-11-30T05:21:45.580Z,10.30
2022-11-30T05:24:14.734Z,8.77
2022-11-30T05:26:43.313Z,7.57
2022-11-30T05:29:11.864Z,8.50
2022-11-30T05:31:41.122Z,8.02
2022-11-30T05:34:11.525Z,7.80
2022-11-30T05:36:40.297Z,8.27
2022-11-30T05:39:08.929Z,7.30
2022-11-30T05:41:37.698Z,8.27
2022-11-30T05:44:06.482Z,8.07
2022-11-30T05:46:40.667Z,7.45
2022-11-30T05:49:11.001Z,7.55
2022-11-30T05:51:41.932Z,6.57
2022-11-30T05:54:10.858Z,7.07
2022-11-30T05:56:39.407Z,7.32
2022-11-30T05:59:07.952Z,7.60
2022-11-30T06:01:36.579Z,6.45
2022-11-30T06:04:08.980Z,6.68
2022-11-30T06:06:39.058Z,8.00
2022-11-30T06:09:07.876Z,7.60
2022-11-30T06:11:36.456Z,6.57
2022-11-30T06:14:05.730Z,5.82
2022-11-30T06:16:34.628Z,5.90
2022-11-30T06:19:04.007Z,6.38
2022-11-30T06:21:32.551Z,6.90
2022-11-30T06:24:02.523Z,6.60
2022-11-30T06:26:31.066Z,5.55
2022-11-30T06:28:59.866Z,5.18
2022-11-30T06:31:28.482Z,6.03
2022-11-30T06:33:58.718Z,5.72
2022-11-30T06:36:31.320Z,6.40
2022-11-30T06:39:05.751Z,5.07
2022-11-30T06:41:34.285Z,5.70
2022-11-30T06:44:03.048Z,6.68
2022-11-30T06:46:31.870Z,6.07
2022-11-30T06:49:00.407Z,6.05
2022-11-30T06:51:29.224Z,8.63
2022-11-30T06:53:57.954Z,7.65
2022-11-30T06:56:27.921Z,8.50
2022-11-30T06:58:56.925Z,7.40
2022-11-30T07:01:25.669Z,7.32
2022-11-30T07:03:54.684Z,7.88
2022-11-30T07:06:23.270Z,6.30
2022-11-30T07:08:52.023Z,6.30
2022-11-30T07:11:20.553Z,7.60
2022-11-30T07:13:50.687Z,7.68
2022-11-30T07:16:19.256Z,7.78
2022-11-30T07:18:48.064Z,7.13
2022-11-30T07:21:16.636Z,7.53
2022-11-30T07:24:02.797Z,8.25
2022-11-30T07:26:31.495Z,7.40
2022-11-30T07:29:01.422Z,6.20
2022-11-30T07:31:33.688Z,7.03
2022-11-30T07:34:08.540Z,6.57
2022-11-30T07:36:38.089Z,7.70
2022-11-30T07:39:07.081Z,7.70
2022-11-30T07:41:35.657Z,8.25
2022-11-30T07:44:07.761Z,7.05
2022-11-30T07:46:37.009Z,8.25
2022-11-30T07:49:07.209Z,8.13
2022-11-30T07:51:36.106Z,8.32
2022-11-30T07:54:05.507Z,9.25
2022-11-30T07:56:34.070Z,9.00
2022-11-30T07:59:04.129Z,7.35
2022-11-30T08:01:35.037Z,8.55
2022-11-30T08:04:04.193Z,9.45
2022-11-30T08:06:33.635Z,8.57
2022-11-30T08:09:05.277Z,10.90
2022-11-30T08:11:36.229Z,10.23
2022-11-30T08:14:05.970Z,8.70
2022-11-30T08:16:39.108Z,9.27
2022-11-30T08:19:07.982Z,10.38
2022-11-30T08:21:38.157Z,8.70
2022-11-30T08:24:07.709Z,8.13
2022-11-30T08:26:36.291Z,8.50
2022-11-30T08:29:05.126Z,8.35
2022-11-30T08:31:36.095Z,7.60
2022-11-30T08:34:09.420Z,6.80
2022-11-30T08:36:38.161Z,7.95
2022-11-30T08:39:09.763Z,7.25
2022-11-30T08:41:39.475Z,7.10
2022-11-30T08:44:08.653Z,7.88
2022-11-30T08:46:54.267Z,7.35
2022-11-30T08:49:25.385Z,8.13
2022-11-30T08:54:47.238Z,7.67
2022-11-30T08:57:17.596Z,9.25
2022-11-30T08:59:46.773Z,10.85
2022-11-30T09:02:19.384Z,27.13
2022-11-30T09:04:51.814Z,23.40
2022-11-30T09:07:21.278Z,16.20
2022-11-30T09:09:50.195Z,8.93
2022-11-30T09:12:19.041Z,10.23
2022-11-30T09:14:55.923Z,11.38
2022-11-30T09:17:26.575Z,8.52
2022-11-30T09:19:56.709Z,8.38
2022-11-30T09:22:25.373Z,9.70
2022-11-30T09:24:54.229Z,9.30
2022-11-30T09:27:23.649Z,9.68
2022-11-30T09:29:52.234Z,7.88
2022-11-30T09:32:20.827Z,11.57
2022-11-30T09:34:50.859Z,8.75
2022-11-30T09:37:21.220Z,8.43
2022-11-30T09:39:49.838Z,9.63
2022-11-30T09:42:44.827Z,14.35
2022-11-30T09:45:19.835Z,16.55
2022-11-30T09:48:20.859Z,9.45
2022-11-30T09:50:51.131Z,8.43
2022-11-30T09:53:29.961Z,9.32
2022-11-30T09:56:00.485Z,10.40
2022-11-30T09:58:39.374Z,9.43
2022-11-30T10:01:16.419Z,9.93
2022-11-30T10:03:45.074Z,10.80
2022-11-30T10:06:23.799Z,10.82
2022-11-30T10:09:25.213Z,9.55
2022-11-30T10:12:01.846Z,11.50
2022-11-30T10:14:58.618Z,12.93
2022-11-30T10:17:41.882Z,12.90
2022-11-30T10:20:45.700Z,13.63
2022-11-30T10:23:42.029Z,14.10
2022-11-30T10:26:16.540Z,13.20
2022-11-30T10:28:53.196Z,12.88
2022-11-30T10:31:35.496Z,21.88
2022-11-30T10:34:19.951Z,13.15
2022-11-30T10:36:54.627Z,11.50
2022-11-30T10:39:29.866Z,10.65
2022-11-30T10:42:06.392Z,12.50
2022-11-30T10:44:40.245Z,11.82
2022-11-30T10:47:15.882Z,14.32
2022-11-30T10:49:51.079Z,14.50
2022-11-30T10:52:23.909Z,13.80
2022-11-30T10:55:02.209Z,13.27
2022-11-30T10:57:35.002Z,13.43
2022-11-30T11:00:07.973Z,16.27
2022-11-30T11:02:42.850Z,12.73
2022-11-30T11:05:19.731Z,13.82
2022-11-30T11:08:04.341Z,11.65
2022-11-30T11:10:37.662Z,11.52
2022-11-30T11:13:08.058Z,13.55
2022-11-30T11:15:37.527Z,16.42
2022-11-30T11:18:28.073Z,14.00
2022-11-30T11:21:06.791Z,13.35
2022-11-30T11:23:39.622Z,11.30
2022-11-30T11:26:18.084Z,9.90
2022-11-30T11:28:51.371Z,7.13
2022-11-30T11:31:36.932Z,14.57
2022-11-30T11:34:11.073Z,15.07
2022-11-30T11:36:39.627Z,12.77
2022-11-30T11:39:28.224Z,14.48
2022-11-30T11:41:56.802Z,12.07
2022-11-30T11:44:28.769Z,25.85
2022-11-30T11:46:59.769Z,10.90
2022-11-30T11:49:30.419Z,8.50
2022-11-30T11:52:03.468Z,6.50
2022-11-30T11:54:38.262Z,44.95
2022-11-30T11:57:10.631Z,16.70
2022-11-30T11:59:50.262Z,7.72
2022-11-30T12:02:29.253Z,7.10
2022-11-30T12:05:00.885Z,6.68
2022-11-30T12:07:36.383Z,7.63
2022-11-30T12:10:51.111Z,8.05
2022-11-30T12:13:19.728Z,7.97
2022-11-30T12:16:06.676Z,8.40
2022-11-30T12:18:46.332Z,10.32
2022-11-30T12:21:17.622Z,10.05
2022-11-30T12:24:20.484Z,8.95
2022-11-30T12:26:57.715Z,6.22
2022-11-30T12:29:38.140Z,5.63
2022-11-30T12:32:26.285Z,8.55
2022-11-30T12:35:13.133Z,9.85
2022-11-30T12:37:52.997Z,7.03
2022-11-30T12:40:36.391Z,8.02
2022-11-30T12:43:16.837Z,7.85
2022-11-30T12:45:46.552Z,6.72
2022-11-30T12:48:29.915Z,8.48
2022-11-30T12:51:16.620Z,7.30
2022-11-30T12:53:55.473Z,7.65
2022-11-30T12:56:33.273Z,5.85
2022-11-30T12:59:17.912Z,5.72
2022-11-30T13:02:04.304Z,5.50
2022-11-30T13:04:42.506Z,6.72
2022-11-30T13:07:22.723Z,6.32
2022-11-30T13:09:55.797Z,6.28
2022-11-30T13:12:36.298Z,10.40
2022-11-30T13:15:15.289Z,8.52
2022-11-30T13:17:45.272Z,13.50
2022-11-30T13:20:23.467Z,6.60
2022-11-30T13:23:00.212Z,6.47
2022-11-30T13:28:39.507Z,5.97
2022-11-30T13:31:12.065Z,7.85
2022-11-30T13:33:51.191Z,6.45
2022-11-30T13:36:41.515Z,6.53
2022-11-30T13:39:25.378Z,7.05
2022-11-30T13:42:35.917Z,7.05
2022-11-30T13:45:32.141Z,7.78
2022-11-30T13:48:17.864Z,7.72
2022-11-30T13:50:50.246Z,7.50
2022-11-30T13:53:27.607Z,7.90
2022-11-30T13:56:05.760Z,8.50
2022-11-30T13:58:35.183Z,8.13
2022-11-30T14:01:28.659Z,8.18
2022-11-30T14:04:38.463Z,8.63
2022-11-30T14:07:37.385Z,8.82
2022-11-30T14:10:29.427Z,8.27
2022-11-30T14:13:02.861Z,9.60
2022-11-30T14:16:01.533Z,14.27
2022-11-30T14:18:42.073Z,8.68
2022-11-30T14:21:32.604Z,9.43
2022-11-30T14:24:06.729Z,8.38
2022-11-30T14:26:43.994Z,7.18
2022-11-30T14:29:18.875Z,7.45
2022-11-30T14:31:58.359Z,8.23
2022-11-30T14:34:32.338Z,7.90
2022-11-30T14:37:05.776Z,8.95
2022-11-30T14:39:37.304Z,9.25
2022-11-30T14:42:08.010Z,8.15
2022-11-30T14:44:38.080Z,7.47
2022-11-30T14:47:18.143Z,8.27
2022-11-30T14:49:47.938Z,8.48
2022-11-30T14:52:37.871Z,9.35
2022-11-30T14:55:21.890Z,7.30
2022-11-30T14:58:02.573Z,7.93
2022-11-30T15:00:39.708Z,9.57
2022-11-30T15:03:21.332Z,8.52
2022-11-30T15:05:54.088Z,8.38
2022-11-30T15:08:23.886Z,9.07
2022-11-30T15:10:52.586Z,9.25
2022-11-30T15:13:22.787Z,21.38
2022-11-30T15:15:56.647Z,14.73
2022-11-30T15:18:26.410Z,18.77
2022-11-30T15:21:00.078Z,18.75
2022-11-30T15:23:29.023Z,9.90
2022-11-30T15:26:02.318Z,10.30
2022-11-30T15:28:36.012Z,12.32
2022-11-30T15:31:09.614Z,9.70
2022-11-30T15:33:44.145Z,9.23
2022-11-30T15:36:31.423Z,9.93
2022-11-30T15:39:06.506Z,8.82
2022-11-30T15:41:36.295Z,9.40
2022-11-30T15:44:06.627Z,8.75
2022-11-30T15:46:42.708Z,8.93
2022-11-30T15:49:21.547Z,7.55
2022-11-30T15:52:04.663Z,7.65
2022-11-30T15:54:52.710Z,9.88
2022-11-30T15:57:22.358Z,8.18
2022-11-30T16:00:09.293Z,8.98
2022-11-30T16:02:39.125Z,8.05
2022-11-30T16:05:26.082Z,8.10
2022-11-30T16:07:59.955Z,7.50
2022-11-30T16:10:39.367Z,7.30
2022-11-30T16:13:08.196Z,7.72
2022-11-30T16:15:39.694Z,6.68
2022-11-30T16:18:17.868Z,6.05
2022-11-30T16:20:49.594Z,7.10
2022-11-30T16:23:19.307Z,7.00
2022-11-30T16:25:50.046Z,6.60
2022-11-30T16:28:23.115Z,29.63
2022-11-30T16:30:55.548Z,24.42
2022-11-30T16:33:25.900Z,10.95
2022-11-30T16:35:58.089Z,8.75
2022-11-30T16:38:27.712Z,8.15
2022-11-30T16:40:57.391Z,8.02
2022-11-30T16:43:26.916Z,10.48
2022-11-30T16:45:57.052Z,10.85
2022-11-30T16:48:25.666Z,7.35
2022-11-30T16:50:54.720Z,9.50
2022-11-30T16:53:28.444Z,9.52
2022-11-30T16:55:57.320Z,10.75
2022-11-30T16:58:25.791Z,10.15
2022-11-30T17:00:55.100Z,10.32
2022-11-30T17:03:31.322Z,9.05
2022-11-30T17:05:59.851Z,11.88
2022-11-30T17:08:28.566Z,9.10
2022-11-30T17:10:57.318Z,8.32
2022-11-30T17:13:25.874Z,8.63
2022-11-30T17:15:54.450Z,9.43
2022-11-30T17:18:24.397Z,9.68
2022-11-30T17:20:52.998Z,8.30
2022-11-30T17:23:21.671Z,7.38
2022-11-30T17:25:50.199Z,7.18
2022-11-30T17:28:18.762Z,9.23
2022-11-30T17:30:47.321Z,8.15
2022-11-30T17:33:16.082Z,10.00
2022-11-30T17:35:46.018Z,11.65
2022-11-30T17:38:14.769Z,9.18
2022-11-30T17:40:43.383Z,10.50
2022-11-30T17:43:12.137Z,9.77
2022-11-30T17:45:41.523Z,8.60
2022-11-30T17:48:10.114Z,7.82
2022-11-30T17:50:40.238Z,9.00
2022-11-30T17:53:13.060Z,7.47
2022-11-30T17:55:45.454Z,6.70
2022-11-30T17:58:14.093Z,7.55
2022-11-30T18:00:42.689Z,7.97
2022-11-30T18:03:11.476Z,8.23
2022-11-30T18:05:40.004Z,8.55
2022-11-30T18:08:09.962Z,9.70
2022-11-30T18:10:40.966Z,8.05
2022-11-30T18:13:09.494Z,8.20
2022-11-30T18:15:38.083Z,11.30
2022-11-30T18:18:06.916Z,10.05
2022-11-30T18:20:35.962Z,8.23
2022-11-30T18:23:04.747Z,8.63
2022-11-30T18:25:35.202Z,9.27
2022-11-30T18:28:03.869Z,9.20
2022-11-30T18:30:32.474Z,9.27
2022-11-30T18:33:01.230Z,9.00
2022-11-30T18:35:30.278Z,8.43
2022-11-30T18:37:59.239Z,9.75
2022-11-30T18:40:28.103Z,9.38
2022-11-30T18:42:59.031Z,10.00
2022-11-30T18:45:27.638Z,9.25
2022-11-30T18:47:56.198Z,9.70
2022-11-30T18:50:24.933Z,11.05
2022-11-30T18:52:55.008Z,10.48
2022-11-30T18:55:23.989Z,10.18
2022-11-30T18:57:53.212Z,11.27
2022-11-30T19:00:24.921Z,13.05
2022-11-30T19:02:53.557Z,11.25
2022-11-30T19:05:35.145Z,12.45
2022-11-30T19:08:07.506Z,10.07
2022-11-30T19:10:38.253Z,11.13
2022-11-30T19:13:08.157Z,10.68
2022-11-30T19:15:40.486Z,11.50
2022-11-30T19:18:11.170Z,11.18
2022-11-30T19:20:40.561Z,12.18
2022-11-30T19:23:09.575Z,12.27
2022-11-30T19:25:38.356Z,12.98
2022-11-30T19:28:07.226Z,10.68
2022-11-30T19:30:35.878Z,13.20
2022-11-30T19:33:05.928Z,11.68
2022-11-30T19:35:34.642Z,12.75
2022-11-30T19:38:03.277Z,10.35
2022-11-30T19:40:32.129Z,12.77
2022-11-30T19:43:00.733Z,14.02
2022-11-30T19:45:29.498Z,12.63
2022-11-30T19:47:58.040Z,11.43
2022-11-30T19:50:28.170Z,10.18
2022-11-30T19:52:57.003Z,11.23
2022-11-30T19:55:25.727Z,13.45
2022-11-30T19:57:54.271Z,15.38
2022-11-30T20:00:23.233Z,24.30
2022-11-30T20:02:51.851Z,18.98
2022-11-30T20:05:20.725Z,19.60
2022-11-30T20:07:50.935Z,18.80
2022-11-30T20:10:19.900Z,14.25
2022-11-30T20:12:48.448Z,15.20
2022-11-30T20:15:17.030Z,16.13
2022-11-30T20:17:45.553Z,14.35
2022-11-30T20:20:14.469Z,12.40
2022-11-30T20:22:43.235Z,12.98
2022-11-30T20:25:13.190Z,12.65
2022-11-30T20:27:42.170Z,12.13
2022-11-30T20:30:11.861Z,15.60
2022-11-30T20:32:42.688Z,12.73
2022-11-30T20:35:12.284Z,11.35
2022-11-30T20:37:40.884Z,14.65
2022-11-30T20:40:12.951Z,15.60
2022-11-30T20:42:41.728Z,16.02
2022-11-30T20:45:11.036Z,16.60
2022-11-30T20:47:39.847Z,15.75
2022-11-30T20:50:10.006Z,15.15
2022-11-30T20:52:38.772Z,18.20
2022-11-30T20:55:08.137Z,18.50
2022-11-30T20:57:38.069Z,16.98
2022-11-30T21:00:13.080Z,15.27
2022-11-30T21:02:42.062Z,16.63
2022-11-30T21:05:11.203Z,16.65
2022-11-30T21:07:39.775Z,15.32
2022-11-30T21:10:10.545Z,12.98
2022-11-30T21:12:41.178Z,14.65
2022-11-30T21:15:11.235Z,14.65
2022-11-30T21:17:39.878Z,16.65
2022-11-30T21:20:10.202Z,14.15
2022-11-30T21:22:39.284Z,14.57
2022-11-30T21:25:08.732Z,15.23
2022-11-30T21:27:37.319Z,17.63
2022-11-30T21:30:09.332Z,16.30
2022-11-30T21:32:37.892Z,13.93
2022-11-30T21:35:07.822Z,16.23
2022-11-30T21:37:36.458Z,12.93
2022-11-30T21:40:05.975Z,13.23
2022-11-30T21:42:34.483Z,14.15
2022-11-30T21:45:03.035Z,14.88
2022-11-30T21:47:33.834Z,12.90
2022-11-30T21:50:02.569Z,14.57
2022-11-30T21:52:31.143Z,14.68
2022-11-30T21:54:59.708Z,15.52
2022-11-30T21:57:28.258Z,13.13
2022-11-30T21:59:56.767Z,15.40
2022-11-30T22:02:25.350Z,12.93
2022-11-30T22:04:55.300Z,13.93
2022-11-30T22:07:32.037Z,14.70
2022-11-30T22:10:00.671Z,16.33
2022-11-30T22:12:29.497Z,23.65
2022-11-30T22:14:58.051Z,21.38
2022-11-30T22:17:26.610Z,16.95
2022-11-30T22:19:56.553Z,14.10
2022-11-30T22:22:25.903Z,16.30
2022-11-30T22:24:55.728Z,16.15
2022-11-30T22:27:24.499Z,13.55
2022-11-30T22:29:54.860Z,14.45
2022-11-30T22:32:23.592Z,15.20
2022-11-30T22:34:52.124Z,15.25
2022-11-30T22:37:22.035Z,13.65
2022-11-30T22:39:50.819Z,13.05
2022-11-30T22:42:19.424Z,13.45
2022-11-30T22:44:47.983Z,14.30
2022-11-30T22:47:17.687Z,12.88
2022-11-30T22:49:46.561Z,14.13
2022-11-30T22:52:15.519Z,16.13
2022-11-30T22:54:45.577Z,15.80
2022-11-30T22:57:14.202Z,14.07
2022-11-30T22:59:43.020Z,13.32
2022-11-30T23:02:11.841Z,14.27
2022-11-30T23:04:40.600Z,14.75
2022-11-30T23:07:09.118Z,16.27
2022-11-30T23:09:37.649Z,15.93
2022-11-30T23:12:08.142Z,13.88
2022-11-30T23:14:36.678Z,15.88
2022-11-30T23:17:06.409Z,12.05
2022-11-30T23:19:34.940Z,11.85
2022-11-30T23:22:03.469Z,14.25
2022-11-30T23:24:32.069Z,14.25
2022-11-30T23:27:01.097Z,12.32
2022-11-30T23:29:33.024Z,13.65
2022-11-30T23:32:02.309Z,13.50
2022-11-30T23:34:30.934Z,11.18
2022-11-30T23:36:59.509Z,12.50
2022-11-30T23:39:28.215Z,17.00
2022-11-30T23:41:57.238Z,12.85
2022-11-30T23:44:25.746Z,12.82
2022-11-30T23:46:55.998Z,12.90
2022-11-30T23:49:24.567Z,12.07
2022-11-30T23:51:53.321Z,12.02
2022-11-30T23:54:22.269Z,11.95
2022-11-30T23:56:51.134Z,13.13
2022-11-30T23:59:19.942Z,10.93
